Search for airport 
image banner adimage banner adimage banner ad
image banner ad

0PA2 - Haunstein

Located in Shermans Dale, United States

ICAO - 0PA2, IATA -

Data provided by Airmate  

General information

Coordinates: N40°19'0" W77°7'29"
Elevation is 600 feet MSL.
Magnetic variation is -11° East
View others Airports in Pennsylvania

Operational data

Special qualification required
Current time UTC:
Current local time:
Weather at : KCXY - Capital City ( 26 km )
METAR: KCXY 091356Z 00000KT 10SM OVC100 10/02 A3008 RMK AO2 SLP189 T01000017 $
View NOTAMs / SUP AIP / TFR affecting this airport [VIEW]
Communications frequencies: [VIEW]

Runways:

RWY identifierQFULength (ft)Width (ft)SurfaceLDA (ft)
111200100GRASS
291200100GRASS

Airport contact information

Address: Shermans Dale United States

Satellite view of 0PA2